createdAt,value
2018-04-17T00:00:12.637Z,110.3
2018-04-17T00:01:13.363Z,120.2
2018-04-17T00:02:14.112Z,120.5
2018-04-17T00:03:14.841Z,129.7
2018-04-17T00:04:15.592Z,117.3
2018-04-17T00:05:16.385Z,115.8
2018-04-17T00:06:17.114Z,124.0
2018-04-17T00:07:17.931Z,122.7
2018-04-17T00:08:19.052Z,129.5
2018-04-17T00:09:19.783Z,108.6
2018-04-17T00:10:20.540Z,116.6
2018-04-17T00:11:21.313Z,115.3
2018-04-17T00:12:22.071Z,120.3
2018-04-17T00:13:22.860Z,132.7
2018-04-17T00:14:23.691Z,140.9
2018-04-17T00:15:24.425Z,135.8
2018-04-17T00:16:25.225Z,147.2
2018-04-17T00:17:25.965Z,137.6
2018-04-17T00:18:26.701Z,125.6
2018-04-17T00:19:27.433Z,119.6
2018-04-17T00:20:28.166Z,122.7
2018-04-17T00:21:28.898Z,139.1
2018-04-17T00:22:29.638Z,133.3
2018-04-17T00:23:30.737Z,133.9
2018-04-17T00:24:31.499Z,137.1
2018-04-17T00:25:32.235Z,156.9
2018-04-17T00:26:33.036Z,132.4
2018-04-17T00:27:33.839Z,141.1
2018-04-17T00:28:34.564Z,144.4
2018-04-17T00:29:35.393Z,161.3
2018-04-17T00:30:36.170Z,150.1
2018-04-17T00:31:36.899Z,142.8
2018-04-17T00:32:37.643Z,151.9
2018-04-17T00:33:38.437Z,145.4
2018-04-17T00:34:39.165Z,149.7
2018-04-17T00:35:40.014Z,138.8
2018-04-17T00:36:40.814Z,149.7
2018-04-17T00:37:41.636Z,159.4
2018-04-17T00:38:42.374Z,157.6
2018-04-17T00:39:43.083Z,140.8
2018-04-17T00:40:43.839Z,141.5
2018-04-17T00:41:44.580Z,155.3
2018-04-17T00:42:45.332Z,158.2
2018-04-17T00:43:46.127Z,155.9
2018-04-17T00:44:46.867Z,150.0
2018-04-17T00:45:47.615Z,172.0
2018-04-17T00:46:48.360Z,154.1
2018-04-17T00:47:49.111Z,167.6
2018-04-17T00:48:49.868Z,162.0
2018-04-17T00:49:50.680Z,152.2
2018-04-17T00:50:51.419Z,163.6
2018-04-17T00:51:52.152Z,163.0
2018-04-17T00:52:52.976Z,155.9
2018-04-17T00:53:53.690Z,179.1
2018-04-17T00:54:54.417Z,151.8
2018-04-17T00:55:55.158Z,158.9
2018-04-17T00:56:55.975Z,174.6
2018-04-17T00:57:56.718Z,180.0
2018-04-17T00:58:57.557Z,167.4
2018-04-17T00:59:58.293Z,178.2
2018-04-17T01:00:59.028Z,177.4
2018-04-17T01:01:59.768Z,184.8
2018-04-17T01:03:00.508Z,169.3
2018-04-17T01:04:01.561Z,185.9
2018-04-17T01:05:02.298Z,181.3
2018-04-17T01:06:03.059Z,182.8
2018-04-17T01:07:03.796Z,191.9
2018-04-17T01:08:04.563Z,189.9
2018-04-17T01:09:05.294Z,165.3
2018-04-17T01:10:06.451Z,181.0
2018-04-17T01:11:07.192Z,170.9
2018-04-17T01:12:07.902Z,171.3
2018-04-17T01:13:08.663Z,160.1
2018-04-17T01:14:09.472Z,169.7
2018-04-17T01:15:10.212Z,182.6
2018-04-17T01:16:10.943Z,183.0
2018-04-17T01:17:11.675Z,169.0
2018-04-17T01:18:12.401Z,174.8
2018-04-17T01:19:13.148Z,169.9
2018-04-17T01:20:13.927Z,183.4
2018-04-17T01:21:14.661Z,173.3
2018-04-17T01:22:15.396Z,156.7
2018-04-17T01:23:16.152Z,168.2
2018-04-17T01:24:16.934Z,178.9
2018-04-17T01:25:17.685Z,168.2
2018-04-17T01:26:18.421Z,172.7
2018-04-17T01:27:19.202Z,188.6
2018-04-17T01:28:20.016Z,206.4
2018-04-17T01:29:20.756Z,187.1
2018-04-17T01:30:21.541Z,184.3
2018-04-17T01:31:22.259Z,200.5
2018-04-17T01:32:23.176Z,185.1
2018-04-17T01:33:23.907Z,198.2
2018-04-17T01:34:24.622Z,174.3
2018-04-17T01:35:25.379Z,189.2
2018-04-17T01:36:26.098Z,200.7
2018-04-17T01:37:26.839Z,191.4
2018-04-17T01:38:27.695Z,190.6
2018-04-17T01:39:28.520Z,175.7
2018-04-17T01:40:29.345Z,190.8
2018-04-17T01:41:30.077Z,190.6
2018-04-17T01:42:30.899Z,182.9
2018-04-17T01:43:31.772Z,195.1
2018-04-17T01:44:32.568Z,175.3
2018-04-17T01:45:33.383Z,201.7
2018-04-17T01:46:34.185Z,188.2
2018-04-17T01:47:35.001Z,190.0
2018-04-17T01:48:35.794Z,194.5
2018-04-17T01:49:36.520Z,181.8
2018-04-17T01:50:37.261Z,177.0
2018-04-17T01:51:37.988Z,170.2
2018-04-17T01:52:38.732Z,178.9
2018-04-17T01:53:39.530Z,182.7
2018-04-17T01:54:40.270Z,184.0
2018-04-17T01:55:41.009Z,183.0
2018-04-17T01:56:41.753Z,197.9
2018-04-17T01:57:42.568Z,170.4
2018-04-17T01:58:43.297Z,180.1
2018-04-17T01:59:44.005Z,179.7
2018-04-17T02:00:44.820Z,187.6
2018-04-17T02:01:45.615Z,190.2
2018-04-17T02:02:46.420Z,194.2
2018-04-17T02:03:47.163Z,201.0
2018-04-17T02:04:47.902Z,216.9
2018-04-17T02:05:48.630Z,201.0
2018-04-17T02:06:49.413Z,204.4
2018-04-17T02:07:50.235Z,197.6
2018-04-17T02:08:50.977Z,196.2
2018-04-17T02:09:51.742Z,197.6
2018-04-17T02:10:52.554Z,208.1
2018-04-17T02:11:53.289Z,226.9
2018-04-17T02:12:54.081Z,208.1
2018-04-17T02:13:54.883Z,204.7
2018-04-17T02:14:55.606Z,217.8
2018-04-17T02:15:56.329Z,193.9
2018-04-17T02:16:57.074Z,210.2
2018-04-17T02:17:57.916Z,223.7
2018-04-17T02:18:58.649Z,224.8
2018-04-17T02:19:59.465Z,239.4
2018-04-17T02:21:00.277Z,230.8
2018-04-17T02:22:01.028Z,247.7
2018-04-17T02:23:01.936Z,259.9
2018-04-17T02:24:02.729Z,248.7
2018-04-17T02:25:03.535Z,219.8
2018-04-17T02:26:04.293Z,246.8
2018-04-17T02:27:05.102Z,248.3
2018-04-17T02:28:05.915Z,246.1
2018-04-17T02:29:06.650Z,213.7
2018-04-17T02:30:07.402Z,256.0
2018-04-17T02:31:08.221Z,246.0
2018-04-17T02:32:08.961Z,287.2
2018-04-17T02:33:09.688Z,255.2
2018-04-17T02:34:10.792Z,257.1
2018-04-17T02:35:11.527Z,247.7
2018-04-17T02:36:12.345Z,248.1
2018-04-17T02:37:13.072Z,223.0
2018-04-17T02:38:13.861Z,234.7
2018-04-17T02:39:14.605Z,269.4
2018-04-17T02:40:15.342Z,260.1
2018-04-17T02:41:16.070Z,274.1
2018-04-17T02:42:16.835Z,287.0
2018-04-17T02:43:17.634Z,287.5
2018-04-17T02:44:18.378Z,268.2
2018-04-17T02:45:19.187Z,253.6
2018-04-17T02:46:19.995Z,270.8
2018-04-17T02:47:20.717Z,284.8
2018-04-17T02:48:21.483Z,297.0
2018-04-17T02:49:22.215Z,324.9
2018-04-17T02:50:22.945Z,326.0
2018-04-17T02:51:23.689Z,319.9
2018-04-17T02:52:24.524Z,298.5
2018-04-17T02:53:25.293Z,275.9
2018-04-17T02:54:26.107Z,285.9
2018-04-17T02:55:26.856Z,314.0
2018-04-17T02:56:27.678Z,291.1
2018-04-17T02:57:28.507Z,256.3
2018-04-17T02:58:29.238Z,261.7
2018-04-17T02:59:30.037Z,254.7
2018-04-17T03:00:30.843Z,293.2
2018-04-17T03:01:31.585Z,274.6
2018-04-17T03:02:32.383Z,302.8
2018-04-17T03:03:33.105Z,263.0
2018-04-17T03:04:33.834Z,277.6
2018-04-17T03:05:34.569Z,257.7
2018-04-17T03:06:35.294Z,260.6
2018-04-17T03:07:36.033Z,266.5
2018-04-17T03:08:36.885Z,304.5
2018-04-17T03:09:37.701Z,307.7
2018-04-17T03:10:38.517Z,262.4
2018-04-17T03:11:39.252Z,257.1
2018-04-17T03:12:40.077Z,265.2
2018-04-17T03:13:40.831Z,289.3
2018-04-17T03:14:41.532Z,301.6
2018-04-17T03:15:42.405Z,293.1
2018-04-17T03:16:43.266Z,271.5
2018-04-17T03:17:44.062Z,299.5
2018-04-17T03:18:44.873Z,319.7
2018-04-17T03:19:45.630Z,315.6
2018-04-17T03:20:46.706Z,286.0
2018-04-17T03:21:47.450Z,290.5
2018-04-17T03:22:48.197Z,260.3
2018-04-17T03:23:48.976Z,236.9
2018-04-17T03:24:49.712Z,277.8
2018-04-17T03:25:50.507Z,286.7
2018-04-17T03:26:51.192Z,272.0
2018-04-17T03:27:51.942Z,311.0
2018-04-17T03:28:52.668Z,294.8
2018-04-17T03:29:53.430Z,297.0
2018-04-17T03:30:54.251Z,313.2
2018-04-17T03:31:54.991Z,318.3
2018-04-17T03:32:55.712Z,292.6
2018-04-17T03:33:56.451Z,301.4
2018-04-17T03:34:57.270Z,270.1
2018-04-17T03:35:58.001Z,276.0
2018-04-17T03:36:58.810Z,319.8
2018-04-17T03:37:59.649Z,315.1
2018-04-17T03:39:00.413Z,318.5
2018-04-17T03:40:01.196Z,286.9
2018-04-17T03:41:01.922Z,265.0
2018-04-17T03:42:02.743Z,267.5
2018-04-17T03:43:03.534Z,268.4
2018-04-17T03:44:04.651Z,271.2
2018-04-17T03:45:05.392Z,292.0
2018-04-17T03:46:06.114Z,273.5
2018-04-17T03:47:06.922Z,259.9
2018-04-17T03:48:07.667Z,258.4
2018-04-17T03:49:08.410Z,266.1
2018-04-17T03:50:09.146Z,280.3
2018-04-17T03:51:10.187Z,296.5
2018-04-17T03:52:10.921Z,260.7
2018-04-17T03:53:11.657Z,279.4
2018-04-17T03:54:12.456Z,270.5
2018-04-17T03:55:13.237Z,328.3
2018-04-17T03:56:14.073Z,336.0
2018-04-17T03:57:14.870Z,310.6
2018-04-17T03:58:15.681Z,309.8
2018-04-17T03:59:16.414Z,274.0
2018-04-17T04:00:17.154Z,265.9
2018-04-17T04:01:17.885Z,276.0
2018-04-17T04:02:18.612Z,289.1
2018-04-17T04:03:19.515Z,275.4
2018-04-17T04:04:20.245Z,259.6
2018-04-17T04:05:20.977Z,286.9
2018-04-17T04:06:21.706Z,290.3
2018-04-17T04:07:22.450Z,288.0
2018-04-17T04:08:23.277Z,315.6
2018-04-17T04:09:24.015Z,282.6
2018-04-17T04:10:24.755Z,265.7
2018-04-17T04:11:25.504Z,293.3
2018-04-17T04:12:26.252Z,324.0
2018-04-17T04:13:27.055Z,316.7
2018-04-17T04:14:27.817Z,336.2
2018-04-17T04:15:28.595Z,318.8
2018-04-17T04:16:29.328Z,355.5
2018-04-17T04:17:30.144Z,362.5
2018-04-17T04:18:30.874Z,297.5
2018-04-17T04:19:31.627Z,311.2
2018-04-17T04:20:32.347Z,423.9
2018-04-17T04:21:33.062Z,363.1
2018-04-17T04:22:33.810Z,320.8
2018-04-17T04:23:34.549Z,279.9
2018-04-17T04:24:35.300Z,376.8
2018-04-17T04:25:36.037Z,356.8
2018-04-17T04:26:36.770Z,361.3
2018-04-17T04:27:37.560Z,363.3
2018-04-17T04:28:38.302Z,390.6
2018-04-17T04:29:39.094Z,352.4
2018-04-17T04:30:39.845Z,338.4
2018-04-17T04:31:40.598Z,331.9
2018-04-17T04:32:41.728Z,316.7
2018-04-17T04:33:42.469Z,320.3
2018-04-17T04:34:43.212Z,332.6
2018-04-17T04:35:43.953Z,347.3
2018-04-17T04:36:44.728Z,347.7
2018-04-17T04:37:45.464Z,298.8
2018-04-17T04:38:46.226Z,277.2
2018-04-17T04:39:47.032Z,283.7
2018-04-17T04:40:47.758Z,271.1
2018-04-17T04:41:48.493Z,316.0
2018-04-17T04:42:49.258Z,279.4
2018-04-17T04:43:50.034Z,264.3
2018-04-17T04:44:50.879Z,266.2
2018-04-17T04:45:51.683Z,279.4
2018-04-17T04:46:52.437Z,277.2
2018-04-17T04:47:53.220Z,326.2
2018-04-17T04:48:54.031Z,335.8
2018-04-17T04:49:55.144Z,321.2
2018-04-17T04:50:55.963Z,312.3
2018-04-17T04:51:56.704Z,309.2
2018-04-17T04:52:57.463Z,285.1
2018-04-17T04:53:58.206Z,258.7
2018-04-17T04:54:58.997Z,256.2
2018-04-17T04:55:59.735Z,272.3
2018-04-17T04:57:00.477Z,283.0
2018-04-17T04:58:01.292Z,230.4
2018-04-17T04:59:02.040Z,264.3
2018-04-17T05:00:02.767Z,313.6
2018-04-17T05:01:03.584Z,245.0
2018-04-17T05:02:04.340Z,265.7
2018-04-17T05:03:05.074Z,300.2
2018-04-17T05:04:05.822Z,311.1
2018-04-17T05:05:06.559Z,300.3
2018-04-17T05:06:07.290Z,308.6
2018-04-17T05:07:08.025Z,294.6
2018-04-17T05:08:09.218Z,321.7
2018-04-17T05:09:09.965Z,360.3
2018-04-17T05:10:10.777Z,300.2
2018-04-17T05:11:11.559Z,320.8
2018-04-17T05:12:12.292Z,305.2
2018-04-17T05:13:13.033Z,314.9
2018-04-17T05:14:13.766Z,281.5
2018-04-17T05:15:14.543Z,315.6
2018-04-17T05:16:15.265Z,308.6
2018-04-17T05:17:16.017Z,316.0
2018-04-17T05:18:17.150Z,307.0
2018-04-17T05:19:17.966Z,283.2
2018-04-17T05:20:18.695Z,299.7
2018-04-17T05:21:19.443Z,324.8
2018-04-17T05:22:20.184Z,351.9
2018-04-17T05:23:20.936Z,360.7
2018-04-17T05:24:21.665Z,388.5
2018-04-17T05:25:22.496Z,375.6
2018-04-17T05:26:23.252Z,426.7
2018-04-17T05:27:24.063Z,422.5
2018-04-17T05:28:24.805Z,415.1
2018-04-17T05:29:25.552Z,497.6
2018-04-17T05:30:26.385Z,469.3
2018-04-17T05:31:27.125Z,501.4
2018-04-17T05:32:27.876Z,414.0
2018-04-17T05:33:28.691Z,441.4
2018-04-17T05:34:29.442Z,474.2
2018-04-17T05:35:30.275Z,455.6
2018-04-17T05:36:31.087Z,423.6
2018-04-17T05:37:31.923Z,496.3
2018-04-17T05:38:32.732Z,788.3
2018-04-17T05:39:33.480Z,945.1
2018-04-17T05:40:34.239Z,862.8
2018-04-17T05:41:35.020Z,615.9
2018-04-17T05:42:35.947Z,828.1
2018-04-17T05:43:36.692Z,750.1
2018-04-17T05:44:37.501Z,647.7
2018-04-17T05:45:38.247Z,649.5
2018-04-17T05:46:38.994Z,427.4
2018-04-17T05:47:39.800Z,476.6
2018-04-17T05:48:40.657Z,465.3
2018-04-17T05:49:41.408Z,417.9
2018-04-17T05:50:42.215Z,398.1
2018-04-17T05:51:42.970Z,350.6
2018-04-17T05:52:43.728Z,629.8
2018-04-17T05:53:44.620Z,475.7
2018-04-17T05:54:45.437Z,406.3
2018-04-17T05:55:46.217Z,350.1
2018-04-17T05:56:46.934Z,316.1
2018-04-17T05:57:47.655Z,299.2
2018-04-17T05:58:48.403Z,277.5
2018-04-17T05:59:49.149Z,332.6
2018-04-17T06:00:49.895Z,343.8
2018-04-17T06:01:50.724Z,361.8
2018-04-17T06:02:51.457Z,382.8
2018-04-17T06:03:52.269Z,411.7
2018-04-17T06:04:53.021Z,460.8
2018-04-17T06:05:53.849Z,558.6
2018-04-17T06:06:54.599Z,576.0
2018-04-17T06:07:55.433Z,599.2
2018-04-17T06:08:56.179Z,609.4
2018-04-17T06:09:56.955Z,569.6
2018-04-17T06:10:57.714Z,650.7
2018-04-17T06:11:58.467Z,636.1
2018-04-17T06:12:59.223Z,624.7
2018-04-17T06:13:59.964Z,594.8
2018-04-17T06:15:00.722Z,778.3
2018-04-17T06:16:01.491Z,724.8
2018-04-17T06:17:02.236Z,830.8
2018-04-17T06:18:02.973Z,824.2
2018-04-17T06:19:03.736Z,811.7
2018-04-17T06:20:04.605Z,719.5
2018-04-17T06:21:05.430Z,742.1
2018-04-17T06:22:06.176Z,816.9
2018-04-17T06:23:06.918Z,654.1
2018-04-17T06:24:07.703Z,620.5
2018-04-17T06:25:08.552Z,811.5
2018-04-17T06:26:09.283Z,834.0
2018-04-17T06:27:09.985Z,627.1
2018-04-17T06:28:10.804Z,616.8
2018-04-17T06:29:11.550Z,566.4
2018-04-17T06:30:12.281Z,445.6
2018-04-17T06:31:13.128Z,446.9
2018-04-17T06:32:13.867Z,432.5
2018-04-17T06:33:14.620Z,414.1
2018-04-17T06:34:15.374Z,356.2
2018-04-17T06:35:16.200Z,338.2
2018-04-17T06:36:16.930Z,295.1
2018-04-17T06:37:17.677Z,304.5
2018-04-17T06:38:18.492Z,283.1
2018-04-17T06:39:19.231Z,276.4
2018-04-17T06:40:19.998Z,262.6
2018-04-17T06:41:20.795Z,243.0
2018-04-17T06:42:21.569Z,232.8
2018-04-17T06:43:22.316Z,221.4
2018-04-17T06:44:23.063Z,204.3
2018-04-17T06:45:23.825Z,201.6
2018-04-17T06:46:24.657Z,207.1
2018-04-17T06:47:25.541Z,187.0
2018-04-17T06:48:26.223Z,174.0
2018-04-17T06:49:26.970Z,174.1
2018-04-17T06:50:27.731Z,162.4
2018-04-17T06:51:28.516Z,156.0
2018-04-17T06:52:29.246Z,143.9
2018-04-17T06:53:30.048Z,128.5
2018-04-17T06:54:30.867Z,132.5
2018-04-17T06:55:31.604Z,118.9
2018-04-17T06:56:32.363Z,108.7
2018-04-17T06:57:33.148Z,104.9
2018-04-17T06:58:34.009Z,99.3
2018-04-17T06:59:34.793Z,87.3
2018-04-17T07:00:35.553Z,80.0
2018-04-17T07:01:36.389Z,74.9
2018-04-17T07:02:37.186Z,70.2
2018-04-17T07:03:38.011Z,70.2
2018-04-17T07:04:38.759Z,76.2
2018-04-17T07:05:39.581Z,64.7
2018-04-17T07:06:40.410Z,52.8
2018-04-17T07:07:41.507Z,58.9
2018-04-17T07:08:42.264Z,46.5
2018-04-17T07:09:43.061Z,45.6
2018-04-17T07:10:43.868Z,44.1
2018-04-17T07:11:44.710Z,41.6
2018-04-17T07:12:45.892Z,44.5
2018-04-17T07:13:46.711Z,46.2
2018-04-17T07:14:47.432Z,43.9
2018-04-17T07:15:48.253Z,47.4
2018-04-17T07:16:48.981Z,40.5
2018-04-17T07:17:49.795Z,40.1
2018-04-17T07:18:50.818Z,40.2
2018-04-17T07:19:51.509Z,39.6
2018-04-17T07:20:52.350Z,40.4
2018-04-17T07:21:53.404Z,41.7
2018-04-17T07:22:54.239Z,39.1
2018-04-17T07:23:55.406Z,41.8
2018-04-17T07:24:56.331Z,43.5
2018-04-17T07:25:57.406Z,42.4
2018-04-17T07:26:58.218Z,38.5
2018-04-17T07:27:59.047Z,36.8
2018-04-17T07:28:59.970Z,35.7
2018-04-17T07:30:00.714Z,33.3
2018-04-17T07:31:01.468Z,37.1
2018-04-17T07:32:02.214Z,34.2
2018-04-17T07:33:02.979Z,31.3
2018-04-17T07:34:03.879Z,34.1
2018-04-17T07:35:04.654Z,33.9
2018-04-17T07:36:05.432Z,32.0
2018-04-17T07:37:06.183Z,31.0
2018-04-17T07:38:07.257Z,35.4
2018-04-17T07:39:08.065Z,34.2
2018-04-17T07:40:08.814Z,31.3
2018-04-17T07:41:09.568Z,30.5
2018-04-17T07:42:10.316Z,33.0
2018-04-17T07:43:11.055Z,31.2
2018-04-17T07:44:11.784Z,30.1
2018-04-17T07:45:12.533Z,32.9
2018-04-17T07:46:13.279Z,29.8
2018-04-17T07:47:14.021Z,30.8
2018-04-17T07:48:14.833Z,32.4
2018-04-17T07:49:15.753Z,36.4
2018-04-17T07:50:16.606Z,31.1
2018-04-17T07:51:17.375Z,33.1
2018-04-17T07:52:18.177Z,28.7
2018-04-17T07:53:18.927Z,29.7
2018-04-17T07:54:19.675Z,28.1
2018-04-17T07:55:20.418Z,33.8
2018-04-17T07:56:21.173Z,30.2
2018-04-17T07:57:21.951Z,28.4
2018-04-17T07:58:22.686Z,30.8
2018-04-17T07:59:23.444Z,26.9
2018-04-17T08:00:24.196Z,26.9
2018-04-17T08:01:24.996Z,28.9
2018-04-17T08:02:25.818Z,30.3
2018-04-17T08:03:26.680Z,29.8
2018-04-17T08:04:27.434Z,28.6
2018-04-17T08:05:28.177Z,31.1
2018-04-17T08:06:28.985Z,27.9
2018-04-17T08:07:29.718Z,32.9
2018-04-17T08:08:30.561Z,28.1
2018-04-17T08:09:31.704Z,28.2
2018-04-17T08:10:32.564Z,28.5
2018-04-17T08:11:33.321Z,28.6
2018-04-17T08:12:34.493Z,26.0
2018-04-17T08:13:35.460Z,30.3
2018-04-17T08:14:36.636Z,30.5
2018-04-17T08:15:37.472Z,29.4
2018-04-17T08:16:38.220Z,26.6
2018-04-17T08:17:39.071Z,27.5
2018-04-17T08:18:40.166Z,29.8
2018-04-17T08:19:41.607Z,28.5
2018-04-17T08:20:42.804Z,26.6
2018-04-17T08:21:44.254Z,27.3
2018-04-17T08:22:45.866Z,27.3
2018-04-17T08:23:46.986Z,31.9
2018-04-17T08:24:47.743Z,24.7
2018-04-17T08:25:48.504Z,25.2
2018-04-17T08:26:49.262Z,28.1
2018-04-17T08:27:50.060Z,27.1
2018-04-17T08:28:50.819Z,26.3
2018-04-17T08:29:51.608Z,26.7
2018-04-17T08:30:52.382Z,29.1
2018-04-17T08:31:53.121Z,29.6
2018-04-17T08:32:53.933Z,27.4
2018-04-17T08:33:54.678Z,25.0
2018-04-17T08:34:55.497Z,26.3
2018-04-17T08:35:56.234Z,25.9
2018-04-17T08:36:57.079Z,25.6
2018-04-17T08:37:57.885Z,31.8
2018-04-17T08:38:58.741Z,25.4
2018-04-17T08:39:59.487Z,24.4
2018-04-17T08:41:00.248Z,26.0
2018-04-17T08:42:01.085Z,25.5
2018-04-17T08:43:01.829Z,23.3
2018-04-17T08:44:02.574Z,22.5
2018-04-17T08:45:03.344Z,29.5
2018-04-17T08:46:04.152Z,25.8
2018-04-17T08:47:04.979Z,30.8
2018-04-17T08:48:05.724Z,26.2
2018-04-17T08:49:06.477Z,25.7
2018-04-17T08:50:07.278Z,28.0
2018-04-17T08:51:08.023Z,22.5
2018-04-17T08:52:08.767Z,22.8
2018-04-17T08:53:09.520Z,25.4
2018-04-17T08:54:10.335Z,22.3
2018-04-17T08:55:11.085Z,26.8
2018-04-17T08:56:11.941Z,25.1
2018-04-17T08:57:12.709Z,23.5
2018-04-17T08:58:13.453Z,26.8
2018-04-17T08:59:14.190Z,26.1
2018-04-17T09:00:14.944Z,25.9
2018-04-17T09:01:15.789Z,20.3
2018-04-17T09:02:16.525Z,23.3
2018-04-17T09:03:17.281Z,26.7
2018-04-17T09:04:18.023Z,27.9
2018-04-17T09:05:18.906Z,26.1
2018-04-17T09:06:19.531Z,24.1
2018-04-17T09:07:20.398Z,24.4
2018-04-17T09:08:21.162Z,27.4
2018-04-17T09:09:21.913Z,22.7
2018-04-17T09:10:22.673Z,25.8
2018-04-17T09:11:23.402Z,21.7
2018-04-17T09:12:24.223Z,23.7
2018-04-17T09:13:24.966Z,22.8
2018-04-17T09:14:25.753Z,22.8
2018-04-17T09:15:26.456Z,20.0
2018-04-17T09:16:27.233Z,21.0
2018-04-17T09:17:28.094Z,30.8
2018-04-17T09:18:28.867Z,22.5
2018-04-17T09:19:29.676Z,20.0
2018-04-17T09:20:30.437Z,20.3
2018-04-17T09:21:31.184Z,21.1
2018-04-17T09:22:32.280Z,22.4
2018-04-17T09:23:33.052Z,25.2
2018-04-17T09:24:33.801Z,21.0
2018-04-17T09:25:34.539Z,22.3
2018-04-17T09:26:35.286Z,22.1
2018-04-17T09:27:36.460Z,17.0
2018-04-17T09:28:37.141Z,23.1
2018-04-17T09:29:37.875Z,19.5
2018-04-17T09:30:38.625Z,17.5
2018-04-17T09:31:39.460Z,17.8
2018-04-17T09:32:40.305Z,19.3
2018-04-17T09:33:41.055Z,19.5
2018-04-17T09:34:41.806Z,17.6
2018-04-17T09:35:42.520Z,20.9
2018-04-17T09:36:43.276Z,19.2
2018-04-17T09:37:44.088Z,17.6
2018-04-17T09:38:44.907Z,20.1
2018-04-17T09:39:45.670Z,21.1
2018-04-17T09:40:46.488Z,17.3
2018-04-17T09:41:47.240Z,17.5
2018-04-17T09:42:47.982Z,14.5
2018-04-17T09:43:48.734Z,16.6
2018-04-17T09:44:49.490Z,19.0
2018-04-17T09:45:50.333Z,26.8
2018-04-17T09:46:51.095Z,16.4
2018-04-17T09:47:51.843Z,17.3
2018-04-17T09:48:52.644Z,13.3
2018-04-17T09:49:53.406Z,13.7
2018-04-17T09:50:54.153Z,13.3
2018-04-17T09:51:54.906Z,12.5
2018-04-17T09:52:55.714Z,12.6
2018-04-17T09:53:56.814Z,10.7
2018-04-17T09:54:57.556Z,13.6
2018-04-17T09:55:58.383Z,12.7
2018-04-17T09:56:59.137Z,18.7
2018-04-17T09:57:59.888Z,14.0
2018-04-17T09:59:00.749Z,15.4
2018-04-17T10:00:01.586Z,15.1
2018-04-17T10:01:02.346Z,19.4
2018-04-17T10:02:03.109Z,15.4
2018-04-17T10:03:03.865Z,14.7
2018-04-17T10:04:04.607Z,14.5
2018-04-17T10:05:05.404Z,18.4
2018-04-17T10:06:06.179Z,13.5
2018-04-17T10:07:06.922Z,14.0
2018-04-17T10:08:07.683Z,17.5
2018-04-17T10:09:08.567Z,18.1
2018-04-17T10:10:09.284Z,16.1
2018-04-17T10:11:10.036Z,17.7
2018-04-17T10:12:10.768Z,19.8
2018-04-17T10:13:11.553Z,14.1
2018-04-17T10:14:12.301Z,14.4
2018-04-17T10:15:13.048Z,15.4
2018-04-17T10:16:14.199Z,15.0
2018-04-17T10:17:14.974Z,16.6
2018-04-17T10:18:15.751Z,19.6
2018-04-17T10:19:16.490Z,16.8
2018-04-17T10:20:17.246Z,16.3
2018-04-17T10:21:18.082Z,15.3
2018-04-17T10:22:18.832Z,18.2
2018-04-17T10:23:19.573Z,13.6
2018-04-17T10:24:20.320Z,10.9
2018-04-17T10:25:21.049Z,10.3
2018-04-17T10:26:21.819Z,17.0
2018-04-17T10:27:23.129Z,14.9
2018-04-17T10:28:23.887Z,23.5
2018-04-17T10:29:24.682Z,13.2
2018-04-17T10:30:25.445Z,12.7
2018-04-17T10:31:26.179Z,12.0
2018-04-17T10:32:26.930Z,14.9
2018-04-17T10:33:28.105Z,16.3
2018-04-17T10:34:28.860Z,15.6
2018-04-17T10:35:29.629Z,13.0
2018-04-17T10:36:30.403Z,15.3
2018-04-17T10:37:32.099Z,12.8
2018-04-17T10:38:32.856Z,12.6
2018-04-17T10:39:33.680Z,13.0
2018-04-17T10:40:34.554Z,12.6
2018-04-17T10:41:35.304Z,10.2
2018-04-17T10:42:36.111Z,11.5
2018-04-17T10:43:36.860Z,10.4
2018-04-17T10:44:37.655Z,12.6
2018-04-17T10:45:38.474Z,11.1
2018-04-17T10:46:39.264Z,12.4
2018-04-17T10:47:40.007Z,10.7
2018-04-17T10:48:40.760Z,9.7
2018-04-17T10:49:41.594Z,10.9
2018-04-17T10:50:42.355Z,10.9
2018-04-17T10:51:43.112Z,7.7
2018-04-17T10:52:43.865Z,12.2
2018-04-17T10:53:44.664Z,7.9
2018-04-17T10:54:45.442Z,10.8
2018-04-17T10:55:46.284Z,12.5
2018-04-17T10:56:47.125Z,9.9
2018-04-17T10:57:47.968Z,7.9
2018-04-17T10:58:48.718Z,10.2
2018-04-17T10:59:49.572Z,10.2
2018-04-17T11:00:50.527Z,7.3
2018-04-17T11:01:51.333Z,6.5
2018-04-17T11:02:52.083Z,8.6
2018-04-17T11:03:52.827Z,7.1
2018-04-17T11:04:53.614Z,9.4
2018-04-17T11:05:54.393Z,6.1
2018-04-17T11:06:55.162Z,14.4
2018-04-17T11:07:55.920Z,6.9
2018-04-17T11:08:56.693Z,7.5
2018-04-17T11:09:57.522Z,9.4
2018-04-17T11:10:58.366Z,11.2
2018-04-17T11:11:59.123Z,10.3
2018-04-17T11:12:59.873Z,8.0
2018-04-17T11:14:00.621Z,14.1
2018-04-17T11:15:01.373Z,12.2
2018-04-17T11:16:02.226Z,11.1
2018-04-17T11:17:03.064Z,7.5
2018-04-17T11:18:03.824Z,8.7
2018-04-17T11:19:04.595Z,9.0
2018-04-17T11:20:05.372Z,11.0
2018-04-17T11:21:06.113Z,9.0
2018-04-17T11:22:06.870Z,8.3
2018-04-17T11:23:07.676Z,9.6
2018-04-17T11:24:09.209Z,9.8
2018-04-17T11:25:10.140Z,10.8
2018-04-17T11:26:11.088Z,11.4
2018-04-17T11:27:11.820Z,6.6
2018-04-17T11:28:12.571Z,9.3
2018-04-17T11:29:13.612Z,6.1
2018-04-17T11:30:14.443Z,7.8
2018-04-17T11:31:15.251Z,8.6
2018-04-17T11:32:16.057Z,10.6
2018-04-17T11:33:16.888Z,10.8
2018-04-17T11:34:17.711Z,10.3
2018-04-17T11:35:18.461Z,13.3
2018-04-17T11:36:19.230Z,9.2
2018-04-17T11:37:20.066Z,9.4
2018-04-17T11:38:20.953Z,12.2
2018-04-17T11:39:21.693Z,9.3
2018-04-17T11:40:22.470Z,11.0
2018-04-17T11:41:23.245Z,11.1
2018-04-17T11:42:24.202Z,11.8
2018-04-17T11:43:24.952Z,9.2
2018-04-17T11:44:25.682Z,15.5
2018-04-17T11:45:26.523Z,8.0
2018-04-17T11:46:27.343Z,10.9
2018-04-17T11:47:28.507Z,9.1
2018-04-17T11:48:29.245Z,10.1
2018-04-17T11:49:30.003Z,12.0
2018-04-17T11:50:30.821Z,8.7
2018-04-17T11:51:31.573Z,12.9
2018-04-17T11:52:32.382Z,11.9
2018-04-17T11:53:33.131Z,9.8
2018-04-17T11:54:33.879Z,7.0
2018-04-17T11:55:34.627Z,9.4
2018-04-17T11:56:35.374Z,13.6
2018-04-17T11:57:36.149Z,11.4
2018-04-17T11:58:36.922Z,11.6
2018-04-17T11:59:37.653Z,11.6
2018-04-17T12:00:38.835Z,13.3
2018-04-17T12:01:39.651Z,12.7
2018-04-17T12:02:40.407Z,16.8
2018-04-17T12:03:41.209Z,11.4
2018-04-17T12:04:41.966Z,12.3
2018-04-17T12:05:43.197Z,13.2
2018-04-17T12:06:44.042Z,15.6
2018-04-17T12:07:44.790Z,12.9
2018-04-17T12:08:45.533Z,19.6
2018-04-17T12:09:46.264Z,11.4
2018-04-17T12:10:47.124Z,10.5
2018-04-17T12:11:47.891Z,10.7
2018-04-17T12:12:48.641Z,9.4
2018-04-17T12:13:49.380Z,11.8
2018-04-17T12:14:50.135Z,11.8
2018-04-17T12:15:50.982Z,12.8
2018-04-17T12:16:51.749Z,15.2
2018-04-17T12:17:52.497Z,10.9
2018-04-17T12:18:53.256Z,10.2
2018-04-17T12:19:54.005Z,9.3
2018-04-17T12:20:55.113Z,9.1
2018-04-17T12:21:55.861Z,9.1
2018-04-17T12:22:56.694Z,8.1
2018-04-17T12:23:57.443Z,13.1
2018-04-17T12:24:58.192Z,16.9
2018-04-17T12:25:59.022Z,12.7
2018-04-17T12:26:59.766Z,13.0
2018-04-17T12:28:00.511Z,9.9
2018-04-17T12:29:01.279Z,11.2
2018-04-17T12:30:02.064Z,14.0
2018-04-17T12:31:02.810Z,9.1
2018-04-17T12:32:03.640Z,11.9
2018-04-17T12:33:04.374Z,12.3
2018-04-17T12:34:05.211Z,12.1
2018-04-17T12:35:05.965Z,19.1
2018-04-17T12:36:06.800Z,14.4
2018-04-17T12:37:07.557Z,13.9
2018-04-17T12:38:08.305Z,11.3
2018-04-17T12:39:09.442Z,10.9
2018-04-17T12:40:10.210Z,11.5
2018-04-17T12:41:10.952Z,13.4
2018-04-17T12:42:11.707Z,12.6
2018-04-17T12:43:12.466Z,10.0
2018-04-17T12:44:13.211Z,9.0
2018-04-17T12:45:14.089Z,12.4
2018-04-17T12:46:14.910Z,11.1
2018-04-17T12:47:15.670Z,11.2
2018-04-17T12:48:16.405Z,10.9
2018-04-17T12:49:17.146Z,13.3
2018-04-17T12:50:17.900Z,17.6
2018-04-17T12:51:18.713Z,13.4
2018-04-17T12:52:19.464Z,11.3
2018-04-17T12:53:20.227Z,11.4
2018-04-17T12:54:20.981Z,15.4
2018-04-17T12:55:21.744Z,11.3
2018-04-17T12:56:22.574Z,15.3
2018-04-17T12:57:23.315Z,15.9
2018-04-17T12:58:24.115Z,10.2
2018-04-17T12:59:24.924Z,11.5
2018-04-17T13:00:25.673Z,12.0
2018-04-17T13:01:26.519Z,12.8
2018-04-17T13:02:27.288Z,14.3
2018-04-17T13:03:28.106Z,11.2
2018-04-17T13:04:28.831Z,8.1
2018-04-17T13:05:29.645Z,10.2
2018-04-17T13:06:30.420Z,11.1
2018-04-17T13:07:31.266Z,14.4
2018-04-17T13:08:32.024Z,10.5
2018-04-17T13:09:32.763Z,14.1
2018-04-17T13:10:33.510Z,15.0
2018-04-17T13:11:34.273Z,12.5
2018-04-17T13:12:35.442Z,16.3
2018-04-17T13:13:36.236Z,11.9
2018-04-17T13:14:36.978Z,12.4
2018-04-17T13:15:37.746Z,17.5
2018-04-17T13:16:38.497Z,10.7